Time;durP1;ratioP1;P1;durP2;ratioP2;P2;SDS_P1;SDS_P2;PMS_P1;PMS_P2;Temp;Humidity;BMP_temperature;BMP_pressure;BME280_temperature;BME280_humidity;BME280_pressure;Samples;Min_cycle;Max_cycle;Signal;HPM_P1;HPM_P2
2021/05/13 00:02:10;;;;;;;6.38;4.30;;;11.50;80.90;;;;;;4990149;28;20034;-78
2021/05/13 00:04:35;;;;;;;5.07;4.57;;;11.40;80.80;;;;;;5001745;28;20525;-78
2021/05/13 00:07:01;;;;;;;5.07;4.50;;;11.40;81.00;;;;;;5000792;28;20057;-78
2021/05/13 00:09:26;;;;;;;8.05;5.47;;;11.40;82.10;;;;;;4980668;28;20145;-78
2021/05/13 00:11:54;;;;;;;6.60;5.60;;;11.30;82.60;;;;;;4997442;28;20030;-78
2021/05/13 00:14:19;;;;;;;5.90;5.40;;;11.30;83.00;;;;;;4987382;28;20029;-78
2021/05/13 00:16:45;;;;;;;6.03;5.05;;;11.20;82.70;;;;;;4994304;28;20359;-78
2021/05/13 00:19:12;;;;;;;4.75;4.15;;;11.20;83.10;;;;;;4984576;28;20034;-78
2021/05/13 00:21:38;;;;;;;6.45;5.00;;;11.30;83.50;;;;;;5001130;28;20030;-78
2021/05/13 00:24:05;;;;;;;6.47;4.95;;;11.30;84.70;;;;;;4974263;28;20034;-78
2021/05/13 00:26:38;;;;;;;7.38;6.53;;;11.30;83.80;;;;;;4981085;28;20034;-78
2021/05/13 00:29:26;;;;;;;6.45;5.88;;;11.20;84.60;;;;;;4983340;28;20108;-78
2021/05/13 00:31:51;;;;;;;7.45;6.75;;;11.00;83.00;;;;;;5000703;28;20045;-78
2021/05/13 00:34:17;;;;;;;7.45;6.28;;;11.00;84.00;;;;;;4969976;28;20061;-78
2021/05/13 00:36:42;;;;;;;6.13;5.53;;;10.90;83.10;;;;;;4986258;28;20030;-78
2021/05/13 00:39:09;;;;;;;10.68;9.57;;;10.90;84.80;;;;;;4989331;28;20084;-78
2021/05/13 00:41:34;;;;;;;14.10;9.32;;;10.90;83.80;;;;;;4980337;28;20374;-78
2021/05/13 00:44:00;;;;;;;6.68;6.10;;;10.70;82.90;;;;;;4967760;28;20097;-78
2021/05/13 00:46:26;;;;;;;7.45;6.70;;;10.60;83.00;;;;;;4980346;28;20046;-78
2021/05/13 00:49:00;;;;;;;5.88;5.28;;;10.70;84.30;;;;;;4979381;28;21274;-78
2021/05/13 00:51:27;;;;;;;10.45;9.38;;;10.80;84.70;;;;;;4998027;28;20123;-78
2021/05/13 00:53:52;;;;;;;11.90;10.70;;;10.70;84.20;;;;;;4984195;28;20038;-78
2021/05/13 00:56:18;;;;;;;15.32;12.63;;;10.70;83.70;;;;;;4982270;28;20018;-78
2021/05/13 00:58:46;;;;;;;15.50;13.05;;;10.50;83.10;;;;;;4979044;28;20034;-78
2021/05/13 01:01:16;;;;;;;9.95;9.02;;;10.40;83.90;;;;;;4972608;28;20037;-77
2021/05/13 01:03:42;;;;;;;13.35;12.02;;;10.50;85.50;;;;;;4974748;28;20101;-78
2021/05/13 01:06:12;;;;;;;14.88;13.05;;;10.40;83.70;;;;;;4972323;28;20029;-78
2021/05/13 01:08:38;;;;;;;15.88;13.77;;;10.30;84.50;;;;;;4997295;28;20489;-78
2021/05/13 01:11:03;;;;;;;15.35;13.75;;;10.30;84.40;;;;;;4971230;28;20031;-77
2021/05/13 01:13:32;;;;;;;18.30;13.65;;;10.30;84.30;;;;;;4980015;28;20034;-78
2021/05/13 01:16:11;;;;;;;14.90;13.48;;;10.20;85.30;;;;;;4981546;28;20530;-78
2021/05/13 01:18:39;;;;;;;15.07;13.52;;;10.00;86.80;;;;;;4985702;28;20038;-78
2021/05/13 01:21:05;;;;;;;10.18;7.38;;;10.20;86.10;;;;;;4982406;28;20029;-78
2021/05/13 01:23:30;;;;;;;13.20;11.80;;;10.30;85.10;;;;;;4967395;28;20478;-78
2021/05/13 01:25:56;;;;;;;14.15;12.75;;;10.20;85.50;;;;;;4967319;28;20109;-78
2021/05/13 01:28:26;;;;;;;18.88;12.50;;;10.30;84.90;;;;;;4980463;28;20065;-78
2021/05/13 01:30:53;;;;;;;9.60;8.60;;;10.30;84.60;;;;;;4991642;28;20034;-78
2021/05/13 01:33:19;;;;;;;8.45;7.53;;;10.30;84.60;;;;;;4983709;28;20034;-78
2021/05/13 01:35:45;;;;;;;7.43;6.70;;;10.40;85.20;;;;;;4997435;28;20513;-78
2021/05/13 01:38:12;;;;;;;7.85;7.13;;;10.50;84.60;;;;;;4988895;28;20037;-78
2021/05/13 01:40:38;;;;;;;6.88;6.28;;;10.40;84.80;;;;;;4981377;28;20350;-78
2021/05/13 01:43:04;;;;;;;7.38;6.78;;;10.40;86.00;;;;;;4963593;28;20046;-78
2021/05/13 01:45:30;;;;;;;12.63;11.15;;;10.50;87.00;;;;;;4967983;28;20124;-78
2021/05/13 01:48:01;;;;;;;12.95;11.75;;;10.20;84.30;;;;;;4964879;28;20034;-78
2021/05/13 01:50:31;;;;;;;13.13;11.77;;;10.00;85.60;;;;;;4978180;28;20355;-78
2021/05/13 01:52:57;;;;;;;16.75;13.25;;;9.80;87.70;;;;;;4967713;28;20393;-78
2021/05/13 01:55:22;;;;;;;10.05;8.15;;;9.70;89.20;;;;;;4995341;28;20041;-78
2021/05/13 01:57:48;;;;;;;14.32;12.18;;;9.90;87.70;;;;;;4976700;28;20440;-78
2021/05/13 02:00:14;;;;;;;14.52;13.02;;;9.90;86.30;;;;;;4986572;28;20026;-78
2021/05/13 02:02:39;;;;;;;14.38;12.82;;;9.90;86.50;;;;;;4996330;28;20354;-78
2021/05/13 02:05:05;;;;;;;16.98;12.93;;;9.60;87.80;;;;;;5004662;28;20041;-78
2021/05/13 02:07:31;;;;;;;15.30;13.73;;;9.50;89.40;;;;;;4994643;28;20056;-78
2021/05/13 02:09:56;;;;;;;13.70;11.07;;;9.60;89.40;;;;;;4981998;28;20033;-78
2021/05/13 02:12:22;;;;;;;13.95;11.93;;;9.50;89.10;;;;;;4982533;28;20120;-78
2021/05/13 02:14:47;;;;;;;13.32;11.52;;;9.40;88.50;;;;;;4981536;28;20133;-78
2021/05/13 02:17:13;;;;;;;13.27;11.88;;;9.50;89.20;;;;;;4971995;28;20058;-78
2021/05/13 02:19:39;;;;;;;17.00;12.82;;;9.50;87.90;;;;;;4985643;28;20050;-78
2021/05/13 02:22:04;;;;;;;15.85;11.70;;;9.40;89.00;;;;;;4980898;28;20056;-78
2021/05/13 02:24:30;;;;;;;14.15;11.77;;;9.20;90.00;;;;;;4975056;28;20034;-78
2021/05/13 02:26:55;;;;;;;13.45;11.23;;;9.10;91.10;;;;;;4978405;28;20034;-78
2021/05/13 02:29:21;;;;;;;16.27;12.95;;;9.00;90.70;;;;;;4992213;28;20026;-78
2021/05/13 02:31:46;;;;;;;13.25;11.82;;;9.00;90.70;;;;;;4992465;28;20134;-78
2021/05/13 02:34:12;;;;;;;10.57;9.52;;;9.20;90.00;;;;;;4982650;28;20116;-78
2021/05/13 02:36:37;;;;;;;9.07;7.47;;;9.30;90.00;;;;;;4979593;28;20022;-77
2021/05/13 02:39:03;;;;;;;9.57;7.50;;;9.40;89.60;;;;;;4986522;28;20138;-77
2021/05/13 02:41:29;;;;;;;8.68;6.78;;;9.40;89.20;;;;;;5002340;28;20029;-78
2021/05/13 02:43:55;;;;;;;12.30;9.60;;;9.40;89.80;;;;;;4964534;28;20040;-78
2021/05/13 02:46:20;;;;;;;20.13;9.25;;;9.40;90.00;;;;;;4980129;28;20022;-78
2021/05/13 02:48:46;;;;;;;12.23;10.15;;;9.30;88.40;;;;;;4973918;28;20587;-77
2021/05/13 02:51:11;;;;;;;13.25;11.85;;;9.10;88.30;;;;;;4982047;28;20485;-78
2021/05/13 02:53:37;;;;;;;13.70;11.52;;;8.90;89.00;;;;;;5000520;28;20032;-78
2021/05/13 02:56:03;;;;;;;12.55;11.13;;;9.00;89.10;;;;;;4997309;28;20501;-78
2021/05/13 02:58:29;;;;;;;8.43;7.45;;;9.00;90.10;;;;;;4977273;28;20441;-78
2021/05/13 03:01:07;;;;;;;9.23;8.27;;;9.10;90.00;;;;;;4976717;28;20058;-78
2021/05/13 03:03:33;;;;;;;20.10;11.07;;;9.20;90.30;;;;;;4977370;28;20832;-77
2021/05/13 03:05:58;;;;;;;12.10;10.73;;;9.00;89.00;;;;;;4965151;28;20034;-78
2021/05/13 03:08:24;;;;;;;12.27;11.07;;;8.70;89.30;;;;;;4966824;28;20030;-78
2021/05/13 03:10:49;;;;;;;13.13;11.52;;;8.70;90.20;;;;;;4979387;28;20030;-78
2021/05/13 03:13:23;;;;;;;12.20;10.98;;;8.70;89.70;;;;;;4981284;28;20026;-78
2021/05/13 03:15:50;;;;;;;10.00;9.00;;;8.60;89.50;;;;;;4978152;28;20523;-78
2021/05/13 03:18:16;;;;;;;9.77;8.77;;;8.60;89.60;;;;;;4995831;28;20044;-78
2021/05/13 03:20:46;;;;;;;9.50;8.60;;;8.70;90.10;;;;;;4976245;28;20026;-77
2021/05/13 03:23:12;;;;;;;9.68;8.50;;;8.70;90.30;;;;;;4990343;28;20034;-76
2021/05/13 03:25:40;;;;;;;10.10;9.02;;;8.80;90.40;;;;;;4997598;28;20029;-78
2021/05/13 03:28:09;;;;;;;9.25;8.35;;;8.80;90.40;;;;;;5002383;28;20101;-78
2021/05/13 03:30:42;;;;;;;13.85;9.82;;;8.70;90.60;;;;;;4963177;28;20031;-78
2021/05/13 03:33:08;;;;;;;8.45;7.65;;;8.80;90.70;;;;;;4986292;28;20038;-77
2021/05/13 03:35:34;;;;;;;8.00;6.78;;;8.80;90.50;;;;;;4952296;28;20042;-78
2021/05/13 03:38:00;;;;;;;9.02;6.75;;;8.80;90.40;;;;;;4990881;28;20525;-78
2021/05/13 03:40:28;;;;;;;13.98;8.27;;;8.90;91.10;;;;;;4993497;28;20486;-77
2021/05/13 03:42:54;;;;;;;8.73;7.82;;;8.80;90.80;;;;;;4985584;28;20030;-77
2021/05/13 03:45:20;;;;;;;7.43;6.72;;;8.60;90.60;;;;;;4983460;28;20081;-78
2021/05/13 03:47:46;;;;;;;9.40;7.88;;;8.60;91.10;;;;;;4980189;28;20030;-78
2021/05/13 03:50:12;;;;;;;10.00;9.00;;;8.60;91.20;;;;;;4984897;28;20097;-78
2021/05/13 03:52:37;;;;;;;9.77;8.75;;;8.60;91.10;;;;;;4988180;28;20033;-78
2021/05/13 03:55:03;;;;;;;8.25;6.55;;;8.60;91.10;;;;;;4973424;28;20028;-78
2021/05/13 03:57:29;;;;;;;8.73;7.75;;;8.50;90.90;;;;;;4985305;28;20037;-78
2021/05/13 03:59:57;;;;;;;13.38;9.07;;;8.60;91.40;;;;;;4981157;28;20034;-78
2021/05/13 04:02:32;;;;;;;8.95;8.15;;;8.40;90.70;;;;;;4981272;28;20057;-78
2021/05/13 04:04:58;;;;;;;7.55;6.85;;;8.40;91.40;;;;;;4980934;28;20470;-79
2021/05/13 04:07:25;;;;;;;11.38;8.73;;;8.40;91.40;;;;;;4994389;28;20141;-79
2021/05/13 04:09:51;;;;;;;10.20;8.60;;;8.40;91.20;;;;;;4998777;28;20022;-79
2021/05/13 04:12:16;;;;;;;14.25;8.60;;;8.30;91.00;;;;;;5000231;28;20029;-78
2021/05/13 04:14:42;;;;;;;12.70;9.75;;;8.30;91.00;;;;;;4949002;28;20019;-78
2021/05/13 04:17:08;;;;;;;10.52;9.43;;;8.30;91.10;;;;;;4971702;28;20521;-79
2021/05/13 04:19:34;;;;;;;14.45;10.32;;;8.20;90.90;;;;;;4979597;28;20035;-79
2021/05/13 04:22:01;;;;;;;12.98;11.63;;;8.00;91.20;;;;;;4995177;28;20037;-79
2021/05/13 04:24:26;;;;;;;11.98;10.77;;;7.90;91.80;;;;;;4982973;28;20659;-79
2021/05/13 04:26:52;;;;;;;14.38;9.73;;;8.00;92.20;;;;;;4987400;28;20073;-79
2021/05/13 04:29:17;;;;;;;15.38;11.20;;;8.00;91.30;;;;;;4986367;28;20448;-79
2021/05/13 04:31:43;;;;;;;12.27;9.60;;;8.10;91.10;;;;;;4997497;28;20077;-79
2021/05/13 04:34:08;;;;;;;16.70;11.43;;;8.10;90.70;;;;;;4987742;28;20042;-79
2021/05/13 04:36:34;;;;;;;14.43;11.25;;;8.20;91.00;;;;;;4995444;28;20030;-79
2021/05/13 04:38:59;;;;;;;10.93;8.25;;;8.20;90.90;;;;;;4981704;28;20112;-79
2021/05/13 04:41:28;;;;;;;11.65;8.77;;;8.40;91.10;;;;;;4998176;28;20092;-78
2021/05/13 04:43:53;;;;;;;14.35;10.32;;;8.40;90.80;;;;;;4997505;28;20101;-78
2021/05/13 04:46:22;;;;;;;17.98;12.70;;;8.40;90.70;;;;;;4996074;28;20029;-79
2021/05/13 04:51:19;;;;;;;15.05;12.40;;;8.30;91.30;;;;;;4997357;28;20477;-78
2021/05/13 04:53:47;;;;;;;17.60;13.27;;;8.30;91.50;;;;;;4996197;28;20034;-79
2021/05/13 04:56:13;;;;;;;16.35;13.57;;;8.40;91.10;;;;;;4989019;28;20060;-79
2021/05/13 04:58:38;;;;;;;17.95;13.70;;;8.50;91.00;;;;;;4983328;28;20042;-78
2021/05/13 05:01:04;;;;;;;16.80;11.98;;;8.60;91.40;;;;;;4985159;28;20089;-79
2021/05/13 05:03:29;;;;;;;14.73;12.20;;;8.70;91.20;;;;;;4983211;28;20045;-79
2021/05/13 05:05:55;;;;;;;16.52;14.65;;;8.90;91.30;;;;;;4980109;28;20035;-79
2021/05/13 05:08:20;;;;;;;18.23;14.32;;;9.00;90.80;;;;;;4978711;28;20034;-79
2021/05/13 05:10:46;;;;;;;19.80;14.88;;;9.00;90.90;;;;;;4994002;28;20022;-78
2021/05/13 05:13:11;;;;;;;19.60;15.43;;;9.10;90.90;;;;;;4986882;28;20473;-79
2021/05/13 05:15:37;;;;;;;21.00;17.27;;;9.20;90.80;;;;;;4997740;28;20027;-78
2021/05/13 05:18:03;;;;;;;19.45;16.15;;;9.20;90.80;;;;;;4994863;28;20131;-79
2021/05/13 05:20:28;;;;;;;21.08;17.90;;;9.40;90.80;;;;;;4981141;28;20061;-78
2021/05/13 05:22:54;;;;;;;25.52;18.20;;;9.50;90.70;;;;;;4980965;28;20752;-78
2021/05/13 05:25:19;;;;;;;24.88;18.77;;;9.60;90.80;;;;;;4995482;28;20037;-80
2021/05/13 05:27:45;;;;;;;24.33;19.45;;;9.80;90.80;;;;;;4951085;28;20494;-79
2021/05/13 05:30:11;;;;;;;24.75;19.20;;;9.90;90.80;;;;;;4966695;28;20125;-79
2021/05/13 05:32:37;;;;;;;25.15;20.42;;;10.10;90.40;;;;;;4982797;28;20109;-79
2021/05/13 05:35:04;;;;;;;20.17;17.02;;;10.20;90.70;;;;;;4965523;28;20120;-78
2021/05/13 05:37:31;;;;;;;22.83;19.48;;;10.40;90.90;;;;;;4996363;28;20456;-78
2021/05/13 05:39:56;;;;;;;16.83;13.52;;;10.60;90.70;;;;;;4968982;28;20615;-79
2021/05/13 05:42:22;;;;;;;21.05;18.48;;;10.80;90.70;;;;;;4969247;28;20105;-78
2021/05/13 05:44:48;;;;;;;20.27;16.05;;;11.00;90.90;;;;;;4964410;28;20109;-78
2021/05/13 05:47:16;;;;;;;20.55;16.23;;;11.20;90.90;;;;;;4993828;28;20126;-78
2021/05/13 05:49:42;;;;;;;17.90;16.00;;;11.40;90.90;;;;;;4979965;28;20379;-78
2021/05/13 05:52:08;;;;;;;19.05;15.55;;;11.60;90.90;;;;;;4981837;28;20042;-79
2021/05/13 05:54:33;;;;;;;18.83;14.93;;;11.90;90.50;;;;;;4986884;28;20129;-78
2021/05/13 05:56:59;;;;;;;18.33;15.35;;;12.10;90.80;;;;;;4983160;28;20461;-79
2021/05/13 05:59:25;;;;;;;16.95;13.70;;;12.20;90.50;;;;;;4963176;28;20038;-78
2021/05/13 06:01:50;;;;;;;16.52;14.70;;;12.40;90.60;;;;;;4979850;28;20049;-78
2021/05/13 06:04:16;;;;;;;16.33;13.55;;;12.60;90.70;;;;;;4962170;28;20363;-78
2021/05/13 06:06:41;;;;;;;14.60;13.15;;;12.80;91.00;;;;;;4997192;28;20046;-78
2021/05/13 06:09:08;;;;;;;15.20;13.32;;;12.90;91.00;;;;;;5004327;28;20038;-78
2021/05/13 06:11:33;;;;;;;17.80;14.88;;;13.20;91.50;;;;;;4963466;28;20045;-78
2021/05/13 06:13:59;;;;;;;16.85;15.00;;;13.40;91.60;;;;;;4974591;28;20031;-78
2021/05/13 06:16:24;;;;;;;15.98;13.98;;;13.60;91.80;;;;;;4984787;28;20124;-78
2021/05/13 06:18:57;;;;;;;17.20;14.25;;;13.90;91.50;;;;;;4946873;28;20105;-78
2021/05/13 06:21:23;;;;;;;17.70;14.38;;;14.10;91.70;;;;;;4979780;28;20025;-78
2021/05/13 06:23:59;;;;;;;20.35;16.52;;;14.40;91.70;;;;;;4981581;28;20652;-78
2021/05/13 06:26:29;;;;;;;16.92;14.70;;;14.60;91.80;;;;;;4978844;28;20093;-78
2021/05/13 06:28:54;;;;;;;19.40;16.15;;;14.80;91.60;;;;;;4978593;28;20536;-79
2021/05/13 06:31:20;;;;;;;14.95;13.30;;;15.00;91.80;;;;;;4980878;28;20069;-78
2021/05/13 06:33:46;;;;;;;17.60;10.77;;;15.30;91.70;;;;;;4981415;28;20038;-78
2021/05/13 06:36:11;;;;;;;11.80;10.60;;;15.40;91.50;;;;;;4972089;28;20040;-79
2021/05/13 06:38:37;;;;;;;13.25;11.10;;;15.70;91.70;;;;;;4977561;28;20092;-78
2021/05/13 06:41:05;;;;;;;16.92;11.43;;;15.90;91.80;;;;;;4981388;28;20113;-78
2021/05/13 06:43:32;;;;;;;13.10;11.50;;;16.10;92.10;;;;;;4963611;28;20042;-78
2021/05/13 06:45:57;;;;;;;13.50;11.93;;;16.40;92.20;;;;;;4983640;28;20061;-78
2021/05/13 06:48:23;;;;;;;15.52;11.90;;;16.50;92.00;;;;;;4995392;28;20033;-78
2021/05/13 06:50:48;;;;;;;15.40;11.75;;;16.80;92.00;;;;;;4974330;28;20030;-78
2021/05/13 06:53:14;;;;;;;14.57;11.65;;;17.00;91.70;;;;;;4966009;28;20046;-78
2021/05/13 06:55:39;;;;;;;13.10;8.82;;;17.10;91.60;;;;;;4978194;28;20365;-78
2021/05/13 06:58:05;;;;;;;14.20;11.77;;;17.20;88.60;;;;;;5004399;28;20030;-78
2021/05/13 07:00:31;;;;;;;14.27;12.77;;;17.40;91.30;;;;;;4986806;28;20026;-78
2021/05/13 07:02:56;;;;;;;17.90;12.90;;;17.80;91.80;;;;;;4980114;28;20042;-78
2021/05/13 07:05:22;;;;;;;15.27;12.88;;;18.10;91.30;;;;;;4953977;28;20106;-78
2021/05/13 07:07:48;;;;;;;13.70;11.35;;;18.40;91.30;;;;;;4997085;28;20036;-78
2021/05/13 07:10:13;;;;;;;15.40;11.23;;;18.80;91.30;;;;;;4991280;28;20038;-79
2021/05/13 07:12:39;;;;;;;16.25;10.27;;;19.20;91.50;;;;;;4982120;28;20038;-78
2021/05/13 07:15:05;;;;;;;11.32;9.75;;;19.40;90.70;;;;;;4997526;28;20034;-78
2021/05/13 07:17:31;;;;;;;11.75;9.45;;;19.50;90.20;;;;;;4980244;28;20512;-78
2021/05/13 07:19:56;;;;;;;13.93;10.77;;;19.70;90.10;;;;;;4980297;28;20030;-78
2021/05/13 07:22:22;;;;;;;10.68;9.57;;;20.00;89.80;;;;;;4993049;28;20042;-78
2021/05/13 07:24:50;;;;;;;12.98;8.18;;;20.20;89.40;;;;;;4992466;28;20434;-78
2021/05/13 07:27:16;;;;;;;12.70;9.95;;;20.30;87.60;;;;;;4987809;28;20023;-78
2021/05/13 07:29:42;;;;;;;12.57;9.27;;;20.40;87.10;;;;;;4968295;28;20674;-78
2021/05/13 07:32:07;;;;;;;9.05;8.20;;;20.60;87.40;;;;;;4995863;28;20034;-78
2021/05/13 07:34:33;;;;;;;7.22;6.35;;;20.70;85.60;;;;;;4965636;28;20046;-78
2021/05/13 07:36:59;;;;;;;8.90;6.97;;;20.70;84.50;;;;;;4994648;28;20034;-78
2021/05/13 07:39:25;;;;;;;9.95;8.23;;;20.60;85.10;;;;;;4979182;28;20030;-78
2021/05/13 07:41:50;;;;;;;12.40;7.88;;;21.00;85.60;;;;;;4973969;28;20040;-78
2021/05/13 07:44:16;;;;;;;9.40;7.88;;;21.30;85.40;;;;;;4997419;28;20098;-78
2021/05/13 07:46:42;;;;;;;7.50;6.68;;;21.60;83.70;;;;;;4983162;28;20025;-78
2021/05/13 07:49:08;;;;;;;6.57;5.00;;;21.30;83.00;;;;;;4995815;28;20034;-78
2021/05/13 07:51:33;;;;;;;6.63;5.40;;;21.50;79.10;;;;;;5001833;28;20038;-80
2021/05/13 07:54:01;;;;;;;7.95;5.57;;;21.30;83.40;;;;;;4994105;28;20599;-79
2021/05/13 07:56:26;;;;;;;8.38;4.75;;;21.50;81.90;;;;;;4983658;28;20042;-78
2021/05/13 07:58:52;;;;;;;7.88;4.60;;;21.60;78.90;;;;;;4963487;28;20501;-79
2021/05/13 08:01:17;;;;;;;6.30;4.85;;;21.50;79.30;;;;;;4990217;28;20034;-78
2021/05/13 08:03:43;;;;;;;7.75;4.75;;;21.60;80.00;;;;;;4983732;28;20085;-78
2021/05/13 08:06:08;;;;;;;8.88;5.22;;;21.50;77.60;;;;;;4982515;28;20038;-79
2021/05/13 08:08:34;;;;;;;5.57;4.90;;;21.60;79.40;;;;;;4962093;28;20058;-79
2021/05/13 08:10:59;;;;;;;6.00;5.35;;;22.00;77.80;;;;;;4975497;28;20598;-79
2021/05/13 08:13:25;;;;;;;10.30;6.82;;;22.00;78.30;;;;;;4985079;28;20133;-79
2021/05/13 08:15:51;;;;;;;6.72;6.13;;;22.50;79.60;;;;;;4981752;28;20045;-80
2021/05/13 08:18:16;;;;;;;9.23;7.03;;;22.80;77.10;;;;;;4977516;28;20034;-80
2021/05/13 08:20:42;;;;;;;8.77;6.15;;;22.80;77.00;;;;;;4986920;28;20049;-81
2021/05/13 08:23:07;;;;;;;8.00;5.22;;;22.80;76.30;;;;;;4997651;28;20425;-79
2021/05/13 08:25:33;;;;;;;8.73;4.93;;;22.80;75.50;;;;;;4997773;28;20038;-80
2021/05/13 08:27:58;;;;;;;6.22;5.45;;;22.90;76.50;;;;;;4979138;28;20771;-80
2021/05/13 08:30:24;;;;;;;5.45;4.93;;;23.10;75.80;;;;;;4986133;28;20034;-81
2021/05/13 08:32:50;;;;;;;4.60;4.03;;;23.30;75.30;;;;;;5000895;28;20046;-81
2021/05/13 08:35:15;;;;;;;7.28;4.97;;;23.10;73.30;;;;;;4983899;28;20042;-81
2021/05/13 08:37:41;;;;;;;9.38;5.28;;;23.00;75.40;;;;;;4984564;28;20026;-81
2021/05/13 08:40:07;;;;;;;7.65;4.50;;;23.40;73.60;;;;;;4988821;28;20030;-82
2021/05/13 08:42:35;;;;;;;5.35;3.85;;;23.60;72.90;;;;;;4956634;28;20042;-81
2021/05/13 08:45:01;;;;;;;6.53;4.60;;;23.50;72.60;;;;;;4978615;28;20026;-81
2021/05/13 08:47:27;;;;;;;3.22;2.92;;;23.70;74.80;;;;;;4997104;28;20076;-79
2021/05/13 08:49:52;;;;;;;7.57;3.85;;;23.60;71.70;;;;;;4966707;28;20270;-79
2021/05/13 08:52:19;;;;;;;7.35;5.95;;;23.70;72.10;;;;;;4994005;28;20030;-79
2021/05/13 08:54:52;;;;;;;6.65;5.93;;;23.80;72.10;;;;;;4969193;28;20057;-79
2021/05/13 08:57:17;;;;;;;4.70;4.30;;;24.10;72.20;;;;;;4980041;28;20027;-79
2021/05/13 08:59:43;;;;;;;8.43;5.22;;;24.20;70.70;;;;;;4980391;28;20489;-80
2021/05/13 09:02:09;;;;;;;5.10;3.80;;;24.30;70.60;;;;;;4968489;28;20026;-79
2021/05/13 09:04:42;;;;;;;5.15;3.92;;;24.50;69.80;;;;;;4991516;28;20045;-78
2021/05/13 09:07:13;;;;;;;6.95;4.70;;;24.50;68.40;;;;;;4986397;28;20038;-79
2021/05/13 09:09:39;;;;;;;5.70;3.97;;;24.70;68.50;;;;;;4981540;28;20037;-79
2021/05/13 09:12:05;;;;;;;8.77;4.68;;;24.60;68.10;;;;;;4985136;28;20029;-78
2021/05/13 09:14:32;;;;;;;5.68;5.07;;;24.50;68.20;;;;;;4984262;28;20030;-78
2021/05/13 09:16:58;;;;;;;6.82;4.57;;;24.60;66.30;;;;;;4977820;28;20090;-79
2021/05/13 09:19:32;;;;;;;7.13;5.25;;;24.70;65.00;;;;;;4993042;28;20034;-78
2021/05/13 09:22:03;;;;;;;8.18;5.50;;;24.70;66.20;;;;;;4988049;28;20116;-78
2021/05/13 09:24:42;;;;;;;5.53;4.70;;;24.80;65.60;;;;;;4979053;28;20034;-78
2021/05/13 09:27:14;;;;;;;5.93;5.25;;;25.00;65.70;;;;;;4989374;28;20501;-78
2021/05/13 09:29:40;;;;;;;4.45;3.65;;;25.10;65.30;;;;;;4993093;28;20061;-77
2021/05/13 09:32:15;;;;;;;4.72;3.80;;;25.20;66.40;;;;;;4983461;28;20026;-79
2021/05/13 09:34:41;;;;;;;;;;;25.60;65.90;;;;;;4970280;28;20505;-78
2021/05/13 09:37:06;;;;;;;4.28;3.80;;;25.80;64.60;;;;;;4999967;28;19964;-78
2021/05/13 09:39:32;;;;;;;4.38;2.50;;;26.00;63.30;;;;;;4994383;28;20069;-78
2021/05/13 09:41:58;;;;;;;3.97;2.13;;;26.10;65.60;;;;;;4988252;28;20504;-78
2021/05/13 09:44:39;;;;;;;3.83;2.63;;;26.40;63.70;;;;;;4996210;28;20084;-78
2021/05/13 09:47:28;;;;;;;5.15;2.80;;;26.70;62.10;;;;;;4978140;28;20030;-79
2021/05/13 09:50:02;;;;;;;5.80;3.13;;;27.00;63.20;;;;;;4993408;28;20390;-78
2021/05/13 09:52:53;;;;;;;5.53;2.25;;;27.40;61.10;;;;;;4992250;28;20439;-79
2021/05/13 09:55:24;;;;;;;5.28;2.88;;;27.80;59.30;;;;;;4996107;28;20385;-79
2021/05/13 09:58:02;;;;;;;2.70;1.70;;;27.70;57.90;;;;;;4977349;28;20030;-77
2021/05/13 10:00:43;;;;;;;9.68;2.90;;;27.90;58.20;;;;;;4997839;28;20181;-78
2021/05/13 10:03:17;;;;;;;6.90;2.67;;;28.10;59.20;;;;;;4981725;28;20491;-78
2021/05/13 10:05:48;;;;;;;4.93;1.80;;;28.20;58.30;;;;;;4993784;28;20109;-78
2021/05/13 10:08:13;;;;;;;4.20;1.73;;;28.50;59.10;;;;;;4980153;28;20033;-79
2021/05/13 10:10:40;;;;;;;4.85;1.73;;;28.60;57.40;;;;;;4978077;28;20102;-79
2021/05/13 10:13:06;;;;;;;2.03;1.60;;;28.80;55.60;;;;;;4995642;28;20034;-79
2021/05/13 10:15:32;;;;;;;6.28;1.95;;;29.10;56.10;;;;;;4980827;28;20034;-79
2021/05/13 10:18:00;;;;;;;4.22;2.83;;;29.00;54.90;;;;;;4965489;28;20121;-78
2021/05/13 10:20:27;;;;;;;5.55;2.58;;;29.30;47.50;;;;;;4965600;28;20125;-79
2021/05/13 10:22:53;;;;;;;3.88;2.25;;;29.30;49.80;;;;;;4969172;28;20068;-79
2021/05/13 10:25:23;;;;;;;4.88;2.40;;;29.40;52.50;;;;;;4979049;28;20489;-79
2021/05/13 10:27:50;;;;;;;4.88;1.92;;;29.40;47.80;;;;;;4994723;28;20084;-79
2021/05/13 10:30:16;;;;;;;4.97;2.22;;;29.50;48.20;;;;;;4982785;28;20076;-78
2021/05/13 10:32:42;;;;;;;7.03;2.03;;;29.70;42.40;;;;;;4980910;28;20027;-78
2021/05/13 10:35:08;;;;;;;3.15;1.58;;;29.60;43.00;;;;;;4985655;28;20045;-79
2021/05/13 10:37:39;;;;;;;3.33;2.00;;;29.40;47.10;;;;;;4979744;28;20045;-78
2021/05/13 10:40:08;;;;;;;6.80;1.95;;;29.50;45.80;;;;;;4991865;28;20152;-78
2021/05/13 10:42:34;;;;;;;4.03;1.70;;;29.40;41.70;;;;;;4989502;28;20035;-78
2021/05/13 10:45:00;;;;;;;2.85;1.35;;;29.40;44.60;;;;;;4972628;28;20037;-78
2021/05/13 10:47:27;;;;;;;4.53;1.40;;;29.40;43.60;;;;;;4978345;28;20502;-78
2021/05/13 10:49:52;;;;;;;4.93;1.40;;;29.40;45.20;;;;;;4978019;28;20037;-78
2021/05/13 10:52:32;;;;;;;5.10;1.17;;;29.60;46.40;;;;;;4964570;28;20026;-79
2021/05/13 10:54:58;;;;;;;6.85;1.45;;;29.90;45.80;;;;;;4977648;28;20067;-79
2021/05/13 10:57:23;;;;;;;2.75;1.20;;;29.80;45.10;;;;;;4959713;28;20026;-78
2021/05/13 11:00:07;;;;;;;2.33;1.13;;;29.80;44.10;;;;;;4979163;28;20030;-79
2021/05/13 11:02:43;;;;;;;3.05;0.95;;;29.90;43.20;;;;;;4994951;28;20401;-79
2021/05/13 11:05:27;;;;;;;4.43;1.50;;;30.00;43.80;;;;;;4989493;28;20026;-79
2021/05/13 11:07:53;;;;;;;2.65;0.70;;;30.20;42.30;;;;;;4994403;28;20109;-77
2021/05/13 11:10:19;;;;;;;2.00;1.23;;;30.20;41.30;;;;;;4961667;28;20497;-77
2021/05/13 11:12:44;;;;;;;2.58;1.00;;;30.30;44.00;;;;;;4993464;28;20026;-79
2021/05/13 11:20:32;;;;;;;1.63;1.02;;;31.00;43.20;;;;;;4993630;28;20079;-79
2021/05/13 11:22:58;;;;;;;3.70;1.10;;;31.70;40.90;;;;;;4993195;28;20110;-79
2021/05/13 11:25:24;;;;;;;1.55;0.98;;;31.20;40.90;;;;;;4989080;28;20061;-79
2021/05/13 11:27:49;;;;;;;2.80;1.13;;;31.10;40.00;;;;;;4989329;28;20061;-80
2021/05/13 11:30:16;;;;;;;2.33;1.00;;;31.10;40.80;;;;;;4976930;28;20049;-80
2021/05/13 11:32:41;;;;;;;2.97;1.02;;;31.20;40.30;;;;;;4956935;28;20044;-80
2021/05/13 11:35:07;;;;;;;1.17;1.08;;;31.30;42.20;;;;;;4963226;28;20466;-81
2021/05/13 11:37:36;;;;;;;3.88;1.23;;;32.00;40.50;;;;;;4972461;28;20031;-79
2021/05/13 11:40:21;;;;;;;1.58;0.90;;;31.90;39.50;;;;;;4994110;28;20034;-81
2021/05/13 11:42:47;;;;;;;3.25;1.20;;;32.60;40.20;;;;;;4963993;28;20100;-78
2021/05/13 11:45:17;;;;;;;1.10;0.80;;;32.00;39.60;;;;;;4984630;28;20078;-79
2021/05/13 11:47:43;;;;;;;2.80;1.45;;;31.90;39.30;;;;;;4276419;28;10000325;-78
2021/05/13 11:50:10;;;;;;;1.90;1.38;;;31.80;40.40;;;;;;4985228;28;20034;-78
2021/05/13 11:52:55;;;;;;;3.78;1.13;;;31.90;37.30;;;;;;4956296;28;20043;-78
2021/05/13 11:55:30;;;;;;;3.08;1.08;;;31.90;40.70;;;;;;4993342;28;20030;-78
2021/05/13 11:57:56;;;;;;;2.75;1.10;;;32.30;40.90;;;;;;4971707;28;20456;-78
2021/05/13 12:00:21;;;;;;;4.35;2.33;;;32.30;39.30;;;;;;4981579;28;20184;-78
2021/05/13 12:02:47;;;;;;;5.82;2.15;;;31.90;38.40;;;;;;4997971;28;20064;-79
2021/05/13 12:05:13;;;;;;;4.95;1.60;;;31.60;36.20;;;;;;4992835;28;20608;-78
2021/05/13 12:07:39;;;;;;;4.68;1.65;;;31.20;33.90;;;;;;4977643;28;20049;-79
2021/05/13 12:10:05;;;;;;;6.22;1.98;;;30.80;36.20;;;;;;4968449;28;20034;-79
2021/05/13 12:12:30;;;;;;;2.75;1.48;;;30.60;36.40;;;;;;4978354;28;20045;-80
2021/05/13 12:14:56;;;;;;;2.38;1.30;;;30.20;36.70;;;;;;4973706;28;20451;-78
2021/05/13 12:17:21;;;;;;;2.90;1.50;;;30.00;37.10;;;;;;4981916;28;20553;-78
2021/05/13 12:19:47;;;;;;;2.97;1.08;;;29.60;37.80;;;;;;4961487;28;22037;-81
2021/05/13 12:22:13;;;;;;;4.55;1.20;;;29.30;38.90;;;;;;4976778;28;20031;-80
2021/05/13 12:24:41;;;;;;;3.75;1.50;;;29.20;38.00;;;;;;4964670;28;20030;-80
2021/05/13 12:27:09;;;;;;;3.33;1.23;;;28.80;36.90;;;;;;4972309;28;20121;-79
2021/05/13 12:29:34;;;;;;;4.10;0.93;;;28.50;35.50;;;;;;4984016;28;20041;-80
2021/05/13 12:32:00;;;;;;;2.00;1.10;;;28.30;38.20;;;;;;4964458;28;20042;-80
2021/05/13 12:34:36;;;;;;;5.50;0.93;;;28.30;39.50;;;;;;4979101;28;20095;-80
2021/05/13 12:37:03;;;;;;;2.88;0.73;;;28.40;40.20;;;;;;4967293;28;20038;-80
2021/05/13 12:39:29;;;;;;;1.70;0.90;;;28.50;39.20;;;;;;4993087;28;20049;-80
2021/05/13 12:41:55;;;;;;;3.13;1.10;;;28.60;36.80;;;;;;4975375;28;20448;-80
2021/05/13 12:44:24;;;;;;;1.00;0.60;;;28.60;38.00;;;;;;4997633;28;20109;-80
2021/05/13 12:46:50;;;;;;;1.95;0.90;;;28.60;38.30;;;;;;4979428;28;20026;-80
2021/05/13 12:49:19;;;;;;;1.48;0.93;;;28.60;37.30;;;;;;4982883;28;20040;-82
2021/05/13 12:52:01;;;;;;;1.63;0.85;;;28.50;37.60;;;;;;4984222;28;20070;-82